sensor_id;sensor_type;location;lat;lon;timestamp;P1;durP1;ratioP1;P2;durP2;ratioP2
11000;SDS011;5553;48.506;8.870;2023-08-12T00:01:05;9.63;;;8.73;;
11000;SDS011;5553;48.506;8.870;2023-08-12T00:03:33;10.23;;;9.10;;
11000;SDS011;5553;48.506;8.870;2023-08-12T00:06:04;11.93;;;8.73;;
11000;SDS011;5553;48.506;8.870;2023-08-12T00:08:33;10.63;;;9.20;;
11000;SDS011;5553;48.506;8.870;2023-08-12T00:11:01;9.10;;;8.20;;
11000;SDS011;5553;48.506;8.870;2023-08-12T00:13:29;17.00;;;10.10;;
11000;SDS011;5553;48.506;8.870;2023-08-12T00:15:58;12.63;;;8.83;;
11000;SDS011;5553;48.506;8.870;2023-08-12T00:18:26;10.80;;;8.33;;
11000;SDS011;5553;48.506;8.870;2023-08-12T00:20:55;13.30;;;10.90;;
11000;SDS011;5553;48.506;8.870;2023-08-12T00:23:26;11.57;;;9.77;;
11000;SDS011;5553;48.506;8.870;2023-08-12T00:25:57;12.10;;;8.20;;
11000;SDS011;5553;48.506;8.870;2023-08-12T00:30:52;11.57;;;9.20;;
11000;SDS011;5553;48.506;8.870;2023-08-12T00:33:22;15.90;;;9.80;;
11000;SDS011;5553;48.506;8.870;2023-08-12T00:35:50;14.43;;;9.67;;
11000;SDS011;5553;48.506;8.870;2023-08-12T00:38:19;11.60;;;9.53;;
11000;SDS011;5553;48.506;8.870;2023-08-12T00:40:49;10.57;;;9.30;;
11000;SDS011;5553;48.506;8.870;2023-08-12T00:43:18;11.87;;;10.20;;
11000;SDS011;5553;48.506;8.870;2023-08-12T00:45:46;11.00;;;9.27;;
11000;SDS011;5553;48.506;8.870;2023-08-12T00:48:15;12.37;;;9.83;;
11000;SDS011;5553;48.506;8.870;2023-08-12T00:50:45;14.57;;;9.50;;
11000;SDS011;5553;48.506;8.870;2023-08-12T00:53:14;17.53;;;10.00;;
11000;SDS011;5553;48.506;8.870;2023-08-12T00:55:43;10.80;;;9.70;;
11000;SDS011;5553;48.506;8.870;2023-08-12T00:58:15;12.70;;;9.80;;
11000;SDS011;5553;48.506;8.870;2023-08-12T01:00:43;14.13;;;9.40;;
11000;SDS011;5553;48.506;8.870;2023-08-12T01:03:12;13.47;;;10.27;;
11000;SDS011;5553;48.506;8.870;2023-08-12T01:05:40;10.40;;;8.97;;
11000;SDS011;5553;48.506;8.870;2023-08-12T01:08:09;12.43;;;10.20;;
11000;SDS011;5553;48.506;8.870;2023-08-12T01:10:39;11.43;;;8.20;;
11000;SDS011;5553;48.506;8.870;2023-08-12T01:13:17;8.73;;;7.93;;
11000;SDS011;5553;48.506;8.870;2023-08-12T01:15:54;11.00;;;9.10;;
11000;SDS011;5553;48.506;8.870;2023-08-12T01:18:26;10.80;;;8.87;;
11000;SDS011;5553;48.506;8.870;2023-08-12T01:20:55;12.17;;;10.97;;
11000;SDS011;5553;48.506;8.870;2023-08-12T01:23:26;14.13;;;10.57;;
11000;SDS011;5553;48.506;8.870;2023-08-12T01:25:55;12.00;;;9.33;;
11000;SDS011;5553;48.506;8.870;2023-08-12T01:28:23;11.07;;;9.83;;
11000;SDS011;5553;48.506;8.870;2023-08-12T01:30:55;12.97;;;9.40;;
11000;SDS011;5553;48.506;8.870;2023-08-12T01:33:27;22.80;;;10.23;;
11000;SDS011;5553;48.506;8.870;2023-08-12T01:36:03;19.53;;;10.27;;
11000;SDS011;5553;48.506;8.870;2023-08-12T01:38:39;11.63;;;10.10;;
11000;SDS011;5553;48.506;8.870;2023-08-12T01:41:10;11.50;;;10.30;;
11000;SDS011;5553;48.506;8.870;2023-08-12T01:43:40;10.20;;;9.20;;
11000;SDS011;5553;48.506;8.870;2023-08-12T01:46:09;10.60;;;9.50;;
11000;SDS011;5553;48.506;8.870;2023-08-12T01:48:38;13.57;;;9.73;;
11000;SDS011;5553;48.506;8.870;2023-08-12T01:51:06;10.60;;;9.43;;
11000;SDS011;5553;48.506;8.870;2023-08-12T01:53:35;13.03;;;9.37;;
11000;SDS011;5553;48.506;8.870;2023-08-12T01:56:06;10.30;;;9.30;;
11000;SDS011;5553;48.506;8.870;2023-08-12T01:58:34;10.20;;;9.10;;
11000;SDS011;5553;48.506;8.870;2023-08-12T02:01:03;10.07;;;8.47;;
11000;SDS011;5553;48.506;8.870;2023-08-12T02:03:31;9.67;;;8.67;;
11000;SDS011;5553;48.506;8.870;2023-08-12T02:05:59;11.23;;;8.80;;
11000;SDS011;5553;48.506;8.870;2023-08-12T02:08:27;12.50;;;8.83;;
11000;SDS011;5553;48.506;8.870;2023-08-12T02:10:55;9.53;;;8.63;;
11000;SDS011;5553;48.506;8.870;2023-08-12T02:13:26;9.23;;;8.30;;
11000;SDS011;5553;48.506;8.870;2023-08-12T02:15:55;10.57;;;8.63;;
11000;SDS011;5553;48.506;8.870;2023-08-12T02:18:23;10.50;;;8.30;;
11000;SDS011;5553;48.506;8.870;2023-08-12T02:20:51;11.43;;;8.90;;
11000;SDS011;5553;48.506;8.870;2023-08-12T02:23:20;9.90;;;7.83;;
11000;SDS011;5553;48.506;8.870;2023-08-12T02:25:48;9.57;;;8.57;;
11000;SDS011;5553;48.506;8.870;2023-08-12T02:28:16;9.17;;;8.27;;
11000;SDS011;5553;48.506;8.870;2023-08-12T02:30:47;9.50;;;8.60;;
11000;SDS011;5553;48.506;8.870;2023-08-12T02:33:15;9.73;;;8.73;;
11000;SDS011;5553;48.506;8.870;2023-08-12T02:35:44;10.70;;;8.60;;
11000;SDS011;5553;48.506;8.870;2023-08-12T02:38:12;9.80;;;8.90;;
11000;SDS011;5553;48.506;8.870;2023-08-12T02:40:40;9.30;;;8.33;;
11000;SDS011;5553;48.506;8.870;2023-08-12T02:43:08;8.90;;;7.97;;
11000;SDS011;5553;48.506;8.870;2023-08-12T02:45:37;10.63;;;8.53;;
11000;SDS011;5553;48.506;8.870;2023-08-12T02:48:09;13.33;;;8.63;;
11000;SDS011;5553;48.506;8.870;2023-08-12T02:50:37;9.63;;;8.63;;
11000;SDS011;5553;48.506;8.870;2023-08-12T02:53:06;9.93;;;8.80;;
11000;SDS011;5553;48.506;8.870;2023-08-12T02:55:34;10.00;;;8.43;;
11000;SDS011;5553;48.506;8.870;2023-08-12T02:58:03;10.27;;;8.30;;
11000;SDS011;5553;48.506;8.870;2023-08-12T03:00:31;9.80;;;7.90;;
11000;SDS011;5553;48.506;8.870;2023-08-12T03:02:59;9.43;;;8.47;;
11000;SDS011;5553;48.506;8.870;2023-08-12T03:05:32;8.70;;;7.87;;
11000;SDS011;5553;48.506;8.870;2023-08-12T03:08:00;8.93;;;8.03;;
11000;SDS011;5553;48.506;8.870;2023-08-12T03:10:28;9.83;;;8.00;;
11000;SDS011;5553;48.506;8.870;2023-08-12T03:12:57;10.20;;;8.13;;
11000;SDS011;5553;48.506;8.870;2023-08-12T03:15:25;8.30;;;7.50;;
11000;SDS011;5553;48.506;8.870;2023-08-12T03:17:53;10.10;;;7.30;;
11000;SDS011;5553;48.506;8.870;2023-08-12T03:20:21;7.50;;;6.80;;
11000;SDS011;5553;48.506;8.870;2023-08-12T03:22:52;7.70;;;6.87;;
11000;SDS011;5553;48.506;8.870;2023-08-12T03:25:21;10.30;;;7.83;;
11000;SDS011;5553;48.506;8.870;2023-08-12T03:27:49;7.93;;;7.23;;
11000;SDS011;5553;48.506;8.870;2023-08-12T03:30:17;8.63;;;7.73;;
11000;SDS011;5553;48.506;8.870;2023-08-12T03:32:46;8.50;;;7.07;;
11000;SDS011;5553;48.506;8.870;2023-08-12T03:35:14;9.10;;;7.77;;
11000;SDS011;5553;48.506;8.870;2023-08-12T03:37:42;8.80;;;6.60;;
11000;SDS011;5553;48.506;8.870;2023-08-12T03:40:13;8.67;;;7.50;;
11000;SDS011;5553;48.506;8.870;2023-08-12T03:42:42;8.70;;;7.80;;
11000;SDS011;5553;48.506;8.870;2023-08-12T03:45:10;9.13;;;7.60;;
11000;SDS011;5553;48.506;8.870;2023-08-12T03:47:38;7.67;;;6.80;;
11000;SDS011;5553;48.506;8.870;2023-08-12T03:50:07;9.13;;;7.30;;
11000;SDS011;5553;48.506;8.870;2023-08-12T03:52:35;8.30;;;7.23;;
11000;SDS011;5553;48.506;8.870;2023-08-12T03:55:04;8.60;;;7.80;;
11000;SDS011;5553;48.506;8.870;2023-08-12T03:57:36;8.83;;;7.90;;
11000;SDS011;5553;48.506;8.870;2023-08-12T04:00:02;7.70;;;7.00;;
11000;SDS011;5553;48.506;8.870;2023-08-12T04:02:32;8.37;;;7.67;;
11000;SDS011;5553;48.506;8.870;2023-08-12T04:05:01;8.50;;;7.70;;
11000;SDS011;5553;48.506;8.870;2023-08-12T04:07:29;8.27;;;7.47;;
11000;SDS011;5553;48.506;8.870;2023-08-12T04:09:58;8.57;;;7.77;;
11000;SDS011;5553;48.506;8.870;2023-08-12T04:12:27;10.23;;;6.83;;
11000;SDS011;5553;48.506;8.870;2023-08-12T04:14:58;8.47;;;7.70;;
11000;SDS011;5553;48.506;8.870;2023-08-12T04:17:29;9.80;;;8.00;;
11000;SDS011;5553;48.506;8.870;2023-08-12T04:19:57;8.30;;;7.50;;
11000;SDS011;5553;48.506;8.870;2023-08-12T04:22:25;7.77;;;7.03;;
11000;SDS011;5553;48.506;8.870;2023-08-12T04:24:54;9.20;;;7.60;;
11000;SDS011;5553;48.506;8.870;2023-08-12T04:27:22;10.40;;;8.90;;
11000;SDS011;5553;48.506;8.870;2023-08-12T04:29:50;7.50;;;6.80;;
11000;SDS011;5553;48.506;8.870;2023-08-12T04:32:21;8.30;;;7.50;;
11000;SDS011;5553;48.506;8.870;2023-08-12T04:34:50;8.80;;;7.80;;
11000;SDS011;5553;48.506;8.870;2023-08-12T04:37:18;6.70;;;6.10;;
11000;SDS011;5553;48.506;8.870;2023-08-12T04:39:46;8.13;;;7.33;;
11000;SDS011;5553;48.506;8.870;2023-08-12T04:42:15;9.10;;;8.20;;
11000;SDS011;5553;48.506;8.870;2023-08-12T04:44:43;8.20;;;7.47;;
11000;SDS011;5553;48.506;8.870;2023-08-12T04:47:12;8.10;;;7.30;;
11000;SDS011;5553;48.506;8.870;2023-08-12T04:49:42;9.13;;;7.73;;
11000;SDS011;5553;48.506;8.870;2023-08-12T04:52:11;8.13;;;7.33;;
11000;SDS011;5553;48.506;8.870;2023-08-12T10:24:41;6.60;;;5.77;;
11000;SDS011;5553;48.506;8.870;2023-08-12T12:36:13;5.70;;;4.80;;
11000;SDS011;5553;48.506;8.870;2023-08-12T12:38:44;7.70;;;5.17;;
11000;SDS011;5553;48.506;8.870;2023-08-12T12:41:14;12.83;;;5.60;;
11000;SDS011;5553;48.506;8.870;2023-08-12T12:43:48;6.30;;;5.00;;
11000;SDS011;5553;48.506;8.870;2023-08-12T12:46:23;6.53;;;5.67;;
11000;SDS011;5553;48.506;8.870;2023-08-12T12:49:34;6.47;;;5.37;;
11000;SDS011;5553;48.506;8.870;2023-08-12T12:52:14;5.70;;;4.47;;
11000;SDS011;5553;48.506;8.870;2023-08-12T12:58:51;6.73;;;4.63;;
11000;SDS011;5553;48.506;8.870;2023-08-12T13:01:58;4.53;;;3.97;;
11000;SDS011;5553;48.506;8.870;2023-08-12T13:04:35;7.40;;;4.50;;
11000;SDS011;5553;48.506;8.870;2023-08-12T13:07:24;4.33;;;3.90;;
11000;SDS011;5553;48.506;8.870;2023-08-12T13:09:55;5.43;;;3.77;;
11000;SDS011;5553;48.506;8.870;2023-08-12T13:12:27;3.77;;;2.83;;
11000;SDS011;5553;48.506;8.870;2023-08-12T13:15:01;3.73;;;2.90;;
11000;SDS011;5553;48.506;8.870;2023-08-12T13:17:34;4.00;;;3.27;;
11000;SDS011;5553;48.506;8.870;2023-08-12T13:20:08;4.10;;;2.87;;
11000;SDS011;5553;48.506;8.870;2023-08-12T13:22:50;3.30;;;2.87;;
11000;SDS011;5553;48.506;8.870;2023-08-12T13:25:19;4.60;;;2.90;;
11000;SDS011;5553;48.506;8.870;2023-08-12T13:27:51;2.60;;;2.40;;
11000;SDS011;5553;48.506;8.870;2023-08-12T13:32:49;3.40;;;2.70;;
11000;SDS011;5553;48.506;8.870;2023-08-12T13:35:17;4.50;;;2.77;;
11000;SDS011;5553;48.506;8.870;2023-08-12T13:37:48;2.63;;;2.40;;
11000;SDS011;5553;48.506;8.870;2023-08-12T13:40:21;2.87;;;2.17;;
11000;SDS011;5553;48.506;8.870;2023-08-12T13:43:00;3.60;;;2.70;;
11000;SDS011;5553;48.506;8.870;2023-08-12T13:45:33;4.10;;;2.47;;
11000;SDS011;5553;48.506;8.870;2023-08-12T13:48:01;2.67;;;2.47;;
11000;SDS011;5553;48.506;8.870;2023-08-12T13:50:33;4.50;;;2.60;;
11000;SDS011;5553;48.506;8.870;2023-08-12T13:53:04;3.93;;;2.50;;
11000;SDS011;5553;48.506;8.870;2023-08-12T13:55:32;4.57;;;3.07;;
11000;SDS011;5553;48.506;8.870;2023-08-12T13:58:06;3.67;;;2.60;;
11000;SDS011;5553;48.506;8.870;2023-08-12T14:00:35;2.90;;;2.40;;
11000;SDS011;5553;48.506;8.870;2023-08-12T14:03:05;3.10;;;2.60;;
11000;SDS011;5553;48.506;8.870;2023-08-12T14:05:35;3.23;;;2.40;;
11000;SDS011;5553;48.506;8.870;2023-08-12T14:08:06;3.30;;;2.40;;
11000;SDS011;5553;48.506;8.870;2023-08-12T14:10:35;3.47;;;2.40;;
11000;SDS011;5553;48.506;8.870;2023-08-12T14:13:05;4.23;;;2.50;;
11000;SDS011;5553;48.506;8.870;2023-08-12T14:15:34;3.20;;;2.90;;
11000;SDS011;5553;48.506;8.870;2023-08-12T14:18:03;3.30;;;3.00;;
11000;SDS011;5553;48.506;8.870;2023-08-12T14:20:32;3.60;;;3.00;;
11000;SDS011;5553;48.506;8.870;2023-08-12T14:23:00;3.20;;;2.90;;
11000;SDS011;5553;48.506;8.870;2023-08-12T14:25:40;5.00;;;3.60;;
11000;SDS011;5553;48.506;8.870;2023-08-12T14:28:21;4.63;;;4.10;;
11000;SDS011;5553;48.506;8.870;2023-08-12T14:31:04;5.77;;;4.30;;
11000;SDS011;5553;48.506;8.870;2023-08-12T14:33:41;4.90;;;4.50;;
11000;SDS011;5553;48.506;8.870;2023-08-12T16:06:17;6.23;;;5.27;;
11000;SDS011;5553;48.506;8.870;2023-08-12T16:08:50;6.70;;;5.60;;
11000;SDS011;5553;48.506;8.870;2023-08-12T23:05:17;10.10;;;6.37;;
11000;SDS011;5553;48.506;8.870;2023-08-12T23:07:46;6.90;;;5.93;;
11000;SDS011;5553;48.506;8.870;2023-08-12T23:10:14;9.63;;;8.00;;
11000;SDS011;5553;48.506;8.870;2023-08-12T23:12:42;8.30;;;5.70;;
11000;SDS011;5553;48.506;8.870;2023-08-12T23:15:11;9.77;;;7.70;;
11000;SDS011;5553;48.506;8.870;2023-08-12T23:17:40;8.03;;;7.33;;
11000;SDS011;5553;48.506;8.870;2023-08-12T23:20:08;6.53;;;5.80;;
11000;SDS011;5553;48.506;8.870;2023-08-12T23:22:39;7.87;;;7.10;;
11000;SDS011;5553;48.506;8.870;2023-08-12T23:25:08;9.30;;;8.30;;
11000;SDS011;5553;48.506;8.870;2023-08-12T23:27:37;9.30;;;8.10;;
11000;SDS011;5553;48.506;8.870;2023-08-12T23:30:05;56.57;;;13.07;;
11000;SDS011;5553;48.506;8.870;2023-08-12T23:32:39;7.37;;;6.67;;
11000;SDS011;5553;48.506;8.870;2023-08-12T23:35:08;92.17;;;10.50;;
11000;SDS011;5553;48.506;8.870;2023-08-12T23:37:40;6.80;;;6.13;;
11000;SDS011;5553;48.506;8.870;2023-08-12T23:40:08;24.00;;;7.30;;
11000;SDS011;5553;48.506;8.870;2023-08-12T23:42:39;41.43;;;9.53;;
11000;SDS011;5553;48.506;8.870;2023-08-12T23:45:08;133.47;;;10.43;;
11000;SDS011;5553;48.506;8.870;2023-08-12T23:47:38;28.97;;;6.37;;
11000;SDS011;5553;48.506;8.870;2023-08-12T23:50:07;37.83;;;7.30;;
11000;SDS011;5553;48.506;8.870;2023-08-12T23:52:36;62.00;;;7.90;;
11000;SDS011;5553;48.506;8.870;2023-08-12T23:55:08;33.37;;;7.20;;
11000;SDS011;5553;48.506;8.870;2023-08-12T23:57:36;29.27;;;5.10;;
